Time;durP1;ratioP1;P1;durP2;ratioP2;P2;SDS_P1;SDS_P2;PMS_P1;PMS_P2;Temp;Humidity;BMP_temperature;BMP_pressure;BME280_temperature;BME280_humidity;BME280_pressure;Samples;Min_cycle;Max_cycle;Signal;HPM_P1;HPM_P2
2022/07/19 00:02:01;;;;;;;6.73;3.33;;;22.50;99.90;;;;;;4998489;28;20416;-78
2022/07/19 00:04:27;;;;;;;7.27;4.20;;;22.40;99.90;;;;;;4998708;28;20511;-78
2022/07/19 00:06:54;;;;;;;7.23;4.30;;;22.30;99.90;;;;;;4998494;28;20424;-78
2022/07/19 00:09:21;;;;;;;8.03;3.40;;;22.30;99.90;;;;;;4998177;28;20251;-78
2022/07/19 00:11:48;;;;;;;10.10;4.27;;;22.30;99.90;;;;;;4998529;28;20516;-79
2022/07/19 00:14:14;;;;;;;5.13;3.70;;;22.20;99.90;;;;;;4998495;28;20434;-78
2022/07/19 00:16:40;;;;;;;10.60;4.00;;;22.20;99.90;;;;;;4998339;28;20790;-80
2022/07/19 00:19:05;;;;;;;5.73;3.80;;;22.20;99.90;;;;;;4998803;28;20446;-81
2022/07/19 00:21:31;;;;;;;6.90;3.70;;;22.10;99.90;;;;;;4998013;28;20239;-80
2022/07/19 00:23:57;;;;;;;4.37;3.53;;;22.10;99.90;;;;;;4998670;28;20180;-80
2022/07/19 00:26:23;;;;;;;7.40;3.80;;;22.00;99.90;;;;;;4996830;28;20732;-80
2022/07/19 00:28:49;;;;;;;9.50;3.80;;;22.00;99.90;;;;;;4997871;28;20734;-80
2022/07/19 00:31:14;;;;;;;9.27;4.10;;;22.00;99.90;;;;;;4997727;28;20181;-80
2022/07/19 00:33:40;;;;;;;5.80;4.37;;;21.90;99.90;;;;;;4998397;28;20177;-80
2022/07/19 00:36:06;;;;;;;4.97;4.33;;;21.90;99.90;;;;;;4997797;28;20200;-81
2022/07/19 00:38:32;;;;;;;7.10;3.60;;;21.90;99.90;;;;;;4997484;28;20201;-80
2022/07/19 00:41:01;;;;;;;7.63;4.73;;;21.90;99.90;;;;;;4999199;28;20491;-81
2022/07/19 00:43:27;;;;;;;10.23;4.90;;;21.80;99.90;;;;;;5002298;28;20200;-80
2022/07/19 00:45:53;;;;;;;7.90;4.00;;;21.80;99.90;;;;;;5001454;28;20446;-80
2022/07/19 00:48:19;;;;;;;7.53;3.80;;;21.80;99.90;;;;;;5002122;28;20468;-80
2022/07/19 00:50:45;;;;;;;9.33;4.50;;;21.80;99.90;;;;;;5001458;28;20177;-80
2022/07/19 00:53:13;;;;;;;5.40;4.20;;;21.70;99.90;;;;;;5001511;28;20432;-80
2022/07/19 00:55:40;;;;;;;6.87;3.97;;;21.70;99.90;;;;;;5001345;28;20176;-80
2022/07/19 00:58:08;;;;;;;8.00;4.60;;;21.70;99.90;;;;;;5002969;28;20451;-81
2022/07/19 01:00:34;;;;;;;7.30;4.07;;;21.70;99.90;;;;;;5006606;28;20447;-81
2022/07/19 01:03:01;;;;;;;5.27;3.70;;;21.70;99.90;;;;;;5006497;28;20420;-80
2022/07/19 01:05:27;;;;;;;6.70;4.20;;;21.70;99.90;;;;;;5007136;28;20416;-81
2022/07/19 01:07:53;;;;;;;10.60;4.50;;;21.60;99.90;;;;;;5006396;28;20473;-80
2022/07/19 01:10:19;;;;;;;8.47;4.33;;;21.60;99.90;;;;;;5006789;28;20854;-81
2022/07/19 01:12:45;;;;;;;12.20;4.40;;;21.60;99.90;;;;;;5006090;28;20209;-80
2022/07/19 01:15:17;;;;;;;10.87;4.30;;;21.60;99.90;;;;;;5006461;28;20185;-80
2022/07/19 01:17:43;;;;;;;9.60;5.60;;;21.50;99.90;;;;;;5005558;28;20439;-80
2022/07/19 01:20:10;;;;;;;8.03;4.00;;;21.50;99.90;;;;;;5004514;28;20412;-81
2022/07/19 01:22:36;;;;;;;7.63;4.57;;;21.50;99.90;;;;;;5006394;28;20428;-81
2022/07/19 01:25:02;;;;;;;9.67;4.33;;;21.40;99.90;;;;;;5006666;28;20447;-80
2022/07/19 01:27:28;;;;;;;7.63;4.17;;;21.40;99.90;;;;;;5005819;28;20495;-81
2022/07/19 01:29:54;;;;;;;6.60;4.60;;;21.40;99.90;;;;;;5006036;28;20412;-81
2022/07/19 01:32:20;;;;;;;7.93;4.20;;;21.40;99.90;;;;;;5005443;28;20177;-80
2022/07/19 01:34:45;;;;;;;5.10;4.13;;;21.30;99.90;;;;;;5005295;28;20269;-81
2022/07/19 01:37:11;;;;;;;5.77;3.97;;;21.30;99.90;;;;;;5005104;28;20173;-80
2022/07/19 01:39:37;;;;;;;4.67;3.63;;;21.40;99.90;;;;;;5005298;28;20266;-80
2022/07/19 01:42:03;;;;;;;6.63;4.30;;;21.40;99.90;;;;;;5004552;28;20272;-81
2022/07/19 01:44:29;;;;;;;5.63;4.00;;;21.40;99.90;;;;;;5005272;28;20194;-80
2022/07/19 01:46:54;;;;;;;9.00;3.97;;;21.40;99.90;;;;;;5029201;28;20188;-80
2022/07/19 01:49:20;;;;;;;5.77;3.87;;;21.40;99.90;;;;;;5034072;28;20235;-80
2022/07/19 01:51:46;;;;;;;7.17;4.30;;;21.40;99.90;;;;;;5023153;28;20176;-80
2022/07/19 01:54:12;;;;;;;5.70;3.93;;;21.40;99.90;;;;;;5023265;28;20172;-80
2022/07/19 01:56:42;;;;;;;6.93;3.93;;;21.40;99.90;;;;;;5023284;28;20180;-80
2022/07/19 01:59:08;;;;;;;6.03;3.77;;;21.40;99.90;;;;;;5023131;28;20625;-80
2022/07/19 02:01:34;;;;;;;7.83;4.17;;;21.30;99.90;;;;;;5023102;28;20423;-81
2022/07/19 02:03:59;;;;;;;5.77;4.60;;;21.30;99.90;;;;;;5023667;28;20176;-80
2022/07/19 02:06:25;;;;;;;4.50;4.07;;;21.30;99.90;;;;;;5022589;28;20184;-80
2022/07/19 02:08:51;;;;;;;5.77;3.80;;;21.30;99.90;;;;;;5023016;28;20211;-80
2022/07/19 02:11:35;;;;;;;6.10;3.93;;;21.20;99.90;;;;;;5022899;28;20177;-81
2022/07/19 02:14:01;;;;;;;9.03;5.00;;;21.20;99.90;;;;;;5022500;28;20175;-80
2022/07/19 02:16:27;;;;;;;5.80;4.17;;;21.10;99.90;;;;;;5021958;28;20419;-80
2022/07/19 02:18:53;;;;;;;11.47;4.20;;;21.20;99.90;;;;;;5022712;28;20466;-80
2022/07/19 02:21:19;;;;;;;5.77;3.40;;;21.10;99.90;;;;;;5021901;28;20842;-80
2022/07/19 02:23:45;;;;;;;5.73;3.60;;;21.10;99.90;;;;;;5022435;28;20427;-80
2022/07/19 02:26:11;;;;;;;5.17;4.07;;;21.10;99.90;;;;;;5022653;28;20184;-80
2022/07/19 02:28:36;;;;;;;6.83;4.17;;;21.10;99.90;;;;;;5021911;28;20467;-80
2022/07/19 02:31:02;;;;;;;7.87;4.40;;;21.10;99.90;;;;;;5022030;28;20663;-81
2022/07/19 02:33:28;;;;;;;5.03;3.53;;;21.10;99.90;;;;;;5021800;28;20258;-80
2022/07/19 02:35:54;;;;;;;9.53;4.50;;;21.10;99.90;;;;;;5021323;28;20173;-80
2022/07/19 02:38:20;;;;;;;5.33;3.90;;;21.10;99.90;;;;;;5021341;28;20214;-80
2022/07/19 02:40:45;;;;;;;8.87;3.80;;;21.10;99.90;;;;;;5021677;28;20636;-80
2022/07/19 02:43:11;;;;;;;6.30;4.23;;;21.10;99.90;;;;;;5021593;28;20192;-81
2022/07/19 02:45:37;;;;;;;6.50;4.10;;;21.00;99.90;;;;;;5021340;28;20188;-80
2022/07/19 02:48:04;;;;;;;6.03;4.10;;;21.00;99.90;;;;;;5020809;28;20248;-80
2022/07/19 02:50:31;;;;;;;7.10;4.40;;;21.00;99.90;;;;;;5021139;28;20185;-80
2022/07/19 02:52:56;;;;;;;6.90;4.30;;;20.90;99.90;;;;;;5020472;28;20425;-80
2022/07/19 02:55:22;;;;;;;5.80;4.00;;;20.90;99.90;;;;;;5020871;28;20412;-80
2022/07/19 02:57:48;;;;;;;7.17;4.50;;;;;;;;;;5020905;28;20565;-81
2022/07/19 03:00:14;;;;;;;7.10;4.40;;;20.80;99.90;;;;;;5037337;28;20184;-80
2022/07/19 03:02:40;;;;;;;4.70;3.80;;;20.80;99.90;;;;;;5020968;28;20422;-80
2022/07/19 03:05:07;;;;;;;6.60;4.50;;;20.70;99.90;;;;;;5020491;28;20423;-80
2022/07/19 03:07:33;;;;;;;7.80;4.27;;;20.70;99.90;;;;;;5020510;28;20212;-80
2022/07/19 03:09:59;;;;;;;9.80;3.97;;;20.70;99.90;;;;;;5020226;28;20415;-80
2022/07/19 03:12:25;;;;;;;7.50;4.30;;;20.60;99.90;;;;;;5020020;28;20434;-80
2022/07/19 03:14:51;;;;;;;6.87;4.07;;;20.60;99.90;;;;;;5020222;28;20188;-80
2022/07/19 03:17:16;;;;;;;6.27;3.90;;;20.60;99.90;;;;;;5019121;28;20223;-80
2022/07/19 03:19:42;;;;;;;6.20;3.90;;;20.50;99.90;;;;;;5019660;28;20184;-80
2022/07/19 03:22:08;;;;;;;4.77;4.37;;;20.50;99.90;;;;;;5037961;28;20184;-81
2022/07/19 03:24:34;;;;;;;6.03;4.00;;;20.50;99.90;;;;;;5019381;28;20188;-80
2022/07/19 03:26:59;;;;;;;8.23;4.40;;;20.50;99.90;;;;;;5018993;28;20223;-80
2022/07/19 03:29:25;;;;;;;6.97;3.70;;;20.50;99.90;;;;;;5019721;28;20196;-81
2022/07/19 03:31:51;;;;;;;6.67;3.83;;;20.40;99.90;;;;;;5019888;28;20188;-80
2022/07/19 03:34:17;;;;;;;7.10;4.80;;;20.40;99.90;;;;;;5020190;28;20195;-80
2022/07/19 03:36:43;;;;;;;6.20;4.43;;;20.40;99.90;;;;;;5019506;28;20930;-80
2022/07/19 03:39:08;;;;;;;7.53;4.80;;;20.40;99.90;;;;;;5019327;28;20218;-80
2022/07/19 03:41:35;;;;;;;5.97;4.10;;;20.40;99.90;;;;;;5019391;28;20656;-80
2022/07/19 03:44:01;;;;;;;6.77;4.10;;;20.30;99.90;;;;;;5020029;28;20648;-79
2022/07/19 03:46:28;;;;;;;5.10;4.20;;;20.30;99.90;;;;;;5023256;28;20442;-80
2022/07/19 03:48:56;;;;;;;6.30;4.43;;;20.30;99.90;;;;;;5024165;28;20451;-80
2022/07/19 03:51:22;;;;;;;6.53;4.23;;;20.30;99.90;;;;;;5023726;28;20423;-80
2022/07/19 03:53:48;;;;;;;5.30;3.80;;;20.30;99.90;;;;;;5023478;28;20423;-79
2022/07/19 03:56:15;;;;;;;4.97;3.43;;;20.20;99.90;;;;;;5022578;28;20419;-80
2022/07/19 03:58:41;;;;;;;4.83;3.63;;;20.20;99.90;;;;;;5022457;28;20480;-80
2022/07/19 04:01:07;;;;;;;5.50;3.50;;;20.30;99.90;;;;;;5020920;28;20985;-80
2022/07/19 04:03:40;;;;;;;5.30;3.80;;;20.30;99.90;;;;;;5023516;28;20181;-80
2022/07/19 04:06:07;;;;;;;4.50;3.83;;;20.30;99.90;;;;;;5022864;28;20648;-81
2022/07/19 04:08:33;;;;;;;6.50;3.63;;;20.30;99.90;;;;;;5022792;28;20468;-81
2022/07/19 04:10:59;;;;;;;9.50;4.40;;;20.30;99.90;;;;;;5022626;28;20431;-80
2022/07/19 04:13:25;;;;;;;5.70;3.73;;;20.30;99.90;;;;;;5022688;28;20451;-80
2022/07/19 04:15:51;;;;;;;8.43;3.80;;;20.30;99.90;;;;;;5021917;28;20426;-81
2022/07/19 04:18:17;;;;;;;6.17;3.63;;;20.40;99.90;;;;;;5022253;28;20212;-80
2022/07/19 04:20:43;;;;;;;4.43;3.40;;;20.40;99.90;;;;;;5021934;28;20243;-80
2022/07/19 04:23:09;;;;;;;4.83;3.93;;;20.40;99.90;;;;;;5021638;28;20180;-80
2022/07/19 04:25:35;;;;;;;6.03;3.83;;;20.40;99.90;;;;;;5021863;28;20437;-80
2022/07/19 04:28:01;;;;;;;6.10;3.77;;;20.40;99.90;;;;;;5021572;28;20196;-80
2022/07/19 04:30:28;;;;;;;9.03;3.53;;;20.50;99.90;;;;;;5020968;28;20423;-80
2022/07/19 04:32:54;;;;;;;6.00;3.70;;;20.50;99.90;;;;;;5020850;28;20427;-80
2022/07/19 04:35:20;;;;;;;4.93;3.77;;;20.50;99.90;;;;;;5020422;28;20957;-80
2022/07/19 04:37:46;;;;;;;4.43;3.50;;;20.50;99.90;;;;;;5020176;28;20726;-81
2022/07/19 04:40:12;;;;;;;7.83;4.10;;;20.60;99.90;;;;;;5020145;28;20415;-80
2022/07/19 04:42:38;;;;;;;5.40;3.80;;;20.60;99.90;;;;;;5019837;28;20685;-80
2022/07/19 04:45:05;;;;;;;5.60;3.70;;;20.70;99.90;;;;;;5020554;28;20423;-80
2022/07/19 04:47:31;;;;;;;5.60;3.20;;;20.80;99.90;;;;;;5020006;28;20204;-80
2022/07/19 04:49:57;;;;;;;3.90;3.40;;;20.80;99.90;;;;;;5020366;28;20505;-80
2022/07/19 04:52:23;;;;;;;6.07;3.80;;;20.90;99.90;;;;;;5019436;28;20950;-81
2022/07/19 04:54:48;;;;;;;6.87;2.93;;;21.00;99.90;;;;;;5020246;28;20415;-80
2022/07/19 04:57:14;;;;;;;5.17;2.97;;;21.00;99.90;;;;;;5019373;28;20183;-80
2022/07/19 04:59:41;;;;;;;6.00;3.83;;;21.10;99.90;;;;;;5019488;28;20671;-80
2022/07/19 05:02:07;;;;;;;5.23;3.07;;;21.20;99.90;;;;;;5019539;28;20497;-80
2022/07/19 05:04:33;;;;;;;4.40;3.43;;;21.20;99.90;;;;;;5019396;28;20427;-80
2022/07/19 05:06:59;;;;;;;5.10;3.20;;;21.30;99.90;;;;;;5019233;28;20185;-80
2022/07/19 05:09:26;;;;;;;4.47;3.23;;;21.40;99.90;;;;;;5019526;28;20459;-80
2022/07/19 05:11:51;;;;;;;3.70;2.90;;;21.40;99.90;;;;;;5019256;28;20686;-80
2022/07/19 05:14:18;;;;;;;6.50;3.10;;;21.50;99.90;;;;;;5018220;28;20423;-80
2022/07/19 05:16:44;;;;;;;6.40;3.27;;;21.60;99.90;;;;;;5018098;28;20252;-80
2022/07/19 05:19:10;;;;;;;6.63;3.60;;;21.70;99.90;;;;;;5018302;28;20471;-80
2022/07/19 05:21:36;;;;;;;5.43;3.50;;;21.80;99.90;;;;;;5017898;28;20475;-80
2022/07/19 05:24:02;;;;;;;6.17;3.10;;;21.90;99.90;;;;;;5018032;28;20234;-80
2022/07/19 05:26:28;;;;;;;6.97;3.00;;;22.00;99.90;;;;;;5017797;28;20271;-81
2022/07/19 05:28:54;;;;;;;4.60;2.87;;;22.10;99.90;;;;;;5021440;28;20974;-80
2022/07/19 05:31:20;;;;;;;7.23;3.43;;;22.10;99.90;;;;;;5020984;28;20561;-81
2022/07/19 05:33:46;;;;;;;4.73;3.10;;;22.20;99.90;;;;;;5020536;28;20286;-81
2022/07/19 05:36:11;;;;;;;8.00;3.30;;;22.30;99.90;;;;;;5019944;28;20184;-80
2022/07/19 05:38:38;;;;;;;8.67;3.30;;;22.40;99.90;;;;;;5019866;28;20378;-80
2022/07/19 05:41:09;;;;;;;6.80;3.60;;;22.50;99.90;;;;;;5019966;28;20206;-80
2022/07/19 05:43:37;;;;;;;6.83;3.37;;;22.70;99.90;;;;;;5020019;28;20447;-79
2022/07/19 05:46:03;;;;;;;5.53;2.83;;;22.80;99.90;;;;;;5019424;28;20450;-78
2022/07/19 05:48:29;;;;;;;5.07;3.10;;;22.90;99.90;;;;;;5020306;28;20814;-78
2022/07/19 05:50:58;;;;;;;9.10;3.37;;;23.00;99.90;;;;;;5019688;28;20435;-77
2022/07/19 05:53:25;;;;;;;6.30;3.20;;;23.10;99.90;;;;;;5018982;28;20423;-78
2022/07/19 05:55:51;;;;;;;11.60;3.80;;;23.20;99.90;;;;;;5018564;28;20469;-77
2022/07/19 05:58:19;;;;;;;5.70;3.20;;;23.30;99.90;;;;;;5018775;28;20503;-78
2022/07/19 06:03:30;;;;;;;6.20;3.40;;;23.60;99.90;;;;;;5037094;28;20466;-78
2022/07/19 06:05:56;;;;;;;7.00;3.57;;;23.70;99.90;;;;;;5018031;28;20469;-78
2022/07/19 06:08:22;;;;;;;5.23;3.07;;;23.80;99.90;;;;;;5018257;28;20950;-78
2022/07/19 06:10:48;;;;;;;8.43;3.20;;;23.90;99.90;;;;;;5018028;28;20638;-78
2022/07/19 06:13:14;;;;;;;4.63;2.90;;;24.00;99.90;;;;;;5018403;28;20488;-78
2022/07/19 06:15:40;;;;;;;6.27;3.17;;;24.20;99.90;;;;;;5026340;28;20427;-80
2022/07/19 06:18:06;;;;;;;5.30;3.17;;;24.20;99.90;;;;;;5028205;28;20212;-80
2022/07/19 06:20:31;;;;;;;7.13;3.23;;;24.30;99.90;;;;;;5023800;28;20258;-81
2022/07/19 06:22:57;;;;;;;5.20;3.30;;;24.40;99.90;;;;;;5021941;28;20563;-80
2022/07/19 06:25:23;;;;;;;5.33;3.30;;;24.60;99.90;;;;;;5021810;28;20254;-80
2022/07/19 06:27:49;;;;;;;7.00;2.63;;;24.70;99.90;;;;;;5022324;28;20205;-80
2022/07/19 06:30:15;;;;;;;5.20;3.43;;;24.70;99.90;;;;;;5023077;28;20191;-80
2022/07/19 06:32:40;;;;;;;5.40;2.80;;;24.80;99.90;;;;;;5023167;28;20190;-80
2022/07/19 06:35:07;;;;;;;7.47;3.30;;;25.00;99.90;;;;;;5023277;28;20184;-80
2022/07/19 06:37:32;;;;;;;7.70;3.70;;;25.10;99.90;;;;;;5022796;28;20919;-80
2022/07/19 06:39:58;;;;;;;7.37;3.27;;;25.20;99.90;;;;;;5022681;28;20544;-80
2022/07/19 06:42:24;;;;;;;4.27;3.07;;;25.30;99.90;;;;;;5022790;28;20580;-80
2022/07/19 06:44:50;;;;;;;5.83;3.17;;;25.40;99.90;;;;;;5022241;28;20203;-80
2022/07/19 06:47:15;;;;;;;6.37;3.93;;;25.40;99.90;;;;;;5028187;28;20218;-81
2022/07/19 06:49:42;;;;;;;6.37;2.97;;;25.50;99.90;;;;;;5024156;28;20638;-79
2022/07/19 06:52:10;;;;;;;7.63;3.20;;;25.60;99.90;;;;;;5024820;28;20196;-80
2022/07/19 06:54:36;;;;;;;4.50;3.70;;;25.80;99.90;;;;;;5023147;28;20788;-81
2022/07/19 06:57:02;;;;;;;9.13;3.60;;;25.80;99.70;;;;;;5022827;28;20419;-82
2022/07/19 06:59:28;;;;;;;3.73;2.80;;;25.90;99.40;;;;;;5023854;28;20208;-79
2022/07/19 07:01:53;;;;;;;5.00;2.93;;;26.00;98.90;;;;;;5023102;28;20181;-80
2022/07/19 07:04:19;;;;;;;6.97;3.27;;;26.10;98.50;;;;;;5023616;28;20180;-81
2022/07/19 07:06:45;;;;;;;7.00;3.33;;;26.30;99.30;;;;;;5022728;28;20269;-81
2022/07/19 07:09:11;;;;;;;5.83;3.40;;;26.40;97.20;;;;;;5023220;28;20287;-81
2022/07/19 07:11:37;;;;;;;6.63;3.40;;;26.50;97.10;;;;;;5023213;28;20185;-81
2022/07/19 07:14:03;;;;;;;4.83;3.03;;;26.60;96.40;;;;;;5021935;28;20184;-80
2022/07/19 07:16:28;;;;;;;8.87;3.13;;;26.70;96.80;;;;;;5020392;28;20449;-79
2022/07/19 07:18:54;;;;;;;5.23;3.43;;;26.70;95.30;;;;;;5018981;28;20707;-79
2022/07/19 07:21:20;;;;;;;7.43;3.80;;;26.80;96.30;;;;;;5020499;28;20181;-79
2022/07/19 07:23:46;;;;;;;8.23;3.27;;;26.90;96.90;;;;;;5020753;28;20700;-79
2022/07/19 07:26:12;;;;;;;4.53;2.97;;;27.00;94.80;;;;;;5019381;28;20243;-77
2022/07/19 07:28:37;;;;;;;9.03;3.70;;;27.10;94.70;;;;;;5019163;28;20200;-78
2022/07/19 07:31:04;;;;;;;6.53;3.30;;;27.20;95.00;;;;;;5019885;28;20180;-78
2022/07/19 07:33:29;;;;;;;8.00;3.43;;;27.30;93.60;;;;;;5019074;28;20180;-78
2022/07/19 07:35:55;;;;;;;6.53;3.10;;;27.40;93.00;;;;;;5019108;28;20477;-80
2022/07/19 07:38:21;;;;;;;4.57;2.77;;;27.50;91.60;;;;;;5019145;28;20682;-79
2022/07/19 07:40:47;;;;;;;7.93;3.37;;;27.60;90.70;;;;;;5019463;28;20176;-79
2022/07/19 07:43:13;;;;;;;5.73;3.03;;;27.80;91.50;;;;;;5020084;28;20446;-78
2022/07/19 07:45:39;;;;;;;7.53;3.30;;;27.90;91.60;;;;;;5018832;28;21038;-78
2022/07/19 07:48:05;;;;;;;6.67;3.57;;;28.00;91.10;;;;;;5018799;28;20227;-78
2022/07/19 07:50:31;;;;;;;5.10;3.57;;;28.20;86.00;;;;;;5017736;28;20189;-79
2022/07/19 07:52:56;;;;;;;8.87;3.77;;;28.30;86.50;;;;;;5018749;28;20191;-78
2022/07/19 07:55:22;;;;;;;4.70;2.87;;;28.40;86.10;;;;;;5017112;28;20423;-78
2022/07/19 07:57:48;;;;;;;9.23;3.53;;;28.60;84.00;;;;;;5021943;28;20339;-78
2022/07/19 08:00:14;;;;;;;9.43;3.40;;;28.80;83.50;;;;;;5017492;28;20678;-78
2022/07/19 08:02:42;;;;;;;6.47;2.97;;;28.90;83.20;;;;;;5023037;28;20272;-77
2022/07/19 08:05:08;;;;;;;4.50;2.73;;;29.10;84.10;;;;;;5018181;28;20485;-77
2022/07/19 08:07:34;;;;;;;4.93;3.03;;;29.30;83.10;;;;;;5022165;28;20450;-77
2022/07/19 08:10:01;;;;;;;4.97;3.00;;;29.60;83.80;;;;;;5019474;28;20419;-77
2022/07/19 08:12:27;;;;;;;6.67;3.60;;;30.60;80.50;;;;;;5023920;28;20804;-77
2022/07/19 08:14:53;;;;;;;5.60;3.20;;;31.70;76.30;;;;;;5016227;28;20419;-79
2022/07/19 08:17:19;;;;;;;6.30;3.40;;;32.70;68.70;;;;;;5016787;28;20206;-78
2022/07/19 08:19:44;;;;;;;4.90;3.00;;;33.50;67.80;;;;;;5034246;28;20266;-78
2022/07/19 08:22:15;;;;;;;6.47;3.13;;;34.30;62.30;;;;;;5016277;28;20253;-78
2022/07/19 08:24:41;;;;;;;5.03;3.00;;;35.30;59.70;;;;;;5016737;28;20184;-78
2022/07/19 08:27:07;;;;;;;10.33;3.20;;;36.10;54.90;;;;;;5014655;28;20482;-77
2022/07/19 08:29:33;;;;;;;5.67;3.50;;;36.50;50.70;;;;;;5016589;28;20961;-78
2022/07/19 08:31:58;;;;;;;7.43;3.60;;;36.90;48.00;;;;;;5016414;28;20187;-78
2022/07/19 08:34:24;;;;;;;5.50;3.10;;;37.50;48.20;;;;;;5017175;28;20605;-78
2022/07/19 08:36:50;;;;;;;5.93;2.90;;;38.10;45.70;;;;;;5017373;28;20180;-78
2022/07/19 08:39:16;;;;;;;5.73;3.10;;;38.50;43.10;;;;;;5016846;28;20218;-77
2022/07/19 08:41:44;;;;;;;6.97;3.80;;;38.90;42.30;;;;;;5018581;28;20215;-79
2022/07/19 08:44:11;;;;;;;5.90;3.87;;;39.50;42.00;;;;;;5018553;28;20217;-78
2022/07/19 08:46:38;;;;;;;5.57;3.37;;;40.20;40.00;;;;;;5019274;28;20415;-79
2022/07/19 08:49:04;;;;;;;3.83;2.83;;;40.70;39.50;;;;;;5018219;28;20596;-78
2022/07/19 08:51:31;;;;;;;4.27;2.77;;;41.30;37.80;;;;;;5019584;28;20410;-79
2022/07/19 08:53:57;;;;;;;6.10;3.03;;;41.70;36.10;;;;;;5017782;28;20179;-79
2022/07/19 08:59:07;;;;;;;3.63;2.87;;;42.60;35.90;;;;;;5036285;28;21000;-79
2022/07/19 09:01:33;;;;;;;6.70;3.30;;;43.10;33.80;;;;;;5018372;28;20180;-81
2022/07/19 09:04:19;;;;;;;6.65;3.20;;;43.50;34.60;;;;;;5022933;28;20274;-79
2022/07/19 09:06:54;;;;;;;4.43;3.25;;;43.80;31.40;;;;;;5022521;28;20227;-79
2022/07/19 09:09:22;;;;;;;5.15;3.05;;;44.20;32.10;;;;;;5023274;28;20203;-79
2022/07/19 09:11:50;;;;;;;4.90;3.50;;;44.80;31.10;;;;;;5022337;28;20179;-79
2022/07/19 09:14:25;;;;;;;4.40;2.90;;;45.10;31.30;;;;;;5022926;28;20184;-80
2022/07/19 09:16:52;;;;;;;5.13;2.88;;;45.40;29.60;;;;;;5021967;28;20210;-77
2022/07/19 09:19:23;;;;;;;5.75;3.25;;;45.70;29.50;;;;;;5024048;28;20231;-80
2022/07/19 09:22:10;;;;;;;5.72;3.53;;;45.90;28.90;;;;;;5015178;28;20607;-80
2022/07/19 09:24:55;;;;;;;7.63;3.47;;;46.10;28.60;;;;;;5035972;28;20191;-79
2022/07/19 09:27:23;;;;;;;5.18;2.97;;;46.60;29.80;;;;;;5024051;28;20207;-79
2022/07/19 09:29:53;;;;;;;7.63;2.90;;;47.20;28.90;;;;;;5025135;28;20183;-80
2022/07/19 09:32:21;;;;;;;4.78;2.97;;;47.50;27.10;;;;;;5026431;28;20190;-80
2022/07/19 09:35:01;;;;;;;8.25;3.30;;;47.80;27.60;;;;;;5024680;28;20385;-80
2022/07/19 09:37:32;;;;;;;5.68;3.08;;;47.60;25.90;;;;;;5025327;28;20206;-80
2022/07/19 09:40:03;;;;;;;4.40;2.80;;;47.60;26.00;;;;;;5024876;28;20219;-79
2022/07/19 09:42:41;;;;;;;5.60;3.13;;;47.80;27.20;;;;;;5024918;28;20179;-79
2022/07/19 09:45:10;;;;;;;4.38;2.60;;;48.30;25.70;;;;;;5024670;28;20171;-79
2022/07/19 09:47:41;;;;;;;4.35;2.80;;;48.50;26.20;;;;;;5024164;28;20257;-79
2022/07/19 09:50:16;;;;;;;4.10;3.03;;;49.00;25.70;;;;;;5024480;28;20679;-80
2022/07/19 09:52:43;;;;;;;4.22;2.97;;;49.70;25.50;;;;;;5023704;28;20182;-80
2022/07/19 09:55:10;;;;;;;3.80;2.70;;;50.30;24.90;;;;;;5024265;28;20179;-80
2022/07/19 09:57:39;;;;;;;3.92;3.15;;;50.50;24.80;;;;;;5023092;28;20282;-79
2022/07/19 10:00:08;;;;;;;6.82;3.05;;;50.70;23.70;;;;;;5024473;28;20211;-80
2022/07/19 10:02:36;;;;;;;4.82;2.88;;;50.90;23.00;;;;;;5023681;28;20184;-80
2022/07/19 10:05:04;;;;;;;4.63;2.75;;;50.50;23.20;;;;;;5023587;28;20187;-81
2022/07/19 10:07:32;;;;;;;4.68;3.00;;;50.40;23.50;;;;;;5022051;28;20721;-81
2022/07/19 10:10:04;;;;;;;5.15;2.63;;;50.60;23.50;;;;;;5022803;28;20286;-80
2022/07/19 10:12:30;;;;;;;3.85;2.88;;;50.80;22.60;;;;;;5021563;28;20208;-80
2022/07/19 10:14:56;;;;;;;5.15;3.05;;;50.80;23.00;;;;;;5019870;28;20171;-80
2022/07/19 10:17:27;;;;;;;5.85;3.05;;;50.70;23.10;;;;;;5018561;28;20206;-80
2022/07/19 10:19:53;;;;;;;5.63;2.83;;;50.90;23.20;;;;;;5023793;28;20172;-80
2022/07/19 10:22:25;;;;;;;3.33;2.35;;;51.20;22.70;;;;;;5022720;28;20229;-80
2022/07/19 10:24:59;;;;;;;5.70;2.70;;;50.90;21.90;;;;;;5022777;28;20179;-79
2022/07/19 10:27:24;;;;;;;4.13;2.60;;;50.80;22.30;;;;;;5022368;28;20199;-80
2022/07/19 10:30:10;;;;;;;5.05;2.80;;;50.70;21.20;;;;;;5016433;28;20180;-80
2022/07/19 10:32:41;;;;;;;7.30;2.83;;;50.20;21.00;;;;;;5011602;28;20254;-79
2022/07/19 10:35:25;;;;;;;5.47;2.60;;;48.80;20.70;;;;;;5031762;28;20187;-79
2022/07/19 10:38:01;;;;;;;3.72;2.80;;;47.50;21.90;;;;;;5027225;28;20214;-79
2022/07/19 10:40:50;;;;;;;4.68;2.42;;;47.80;22.20;;;;;;5023506;28;20187;-79
2022/07/19 10:43:20;;;;;;;4.57;2.70;;;48.60;21.10;;;;;;5021536;28;20199;-79
2022/07/19 10:46:01;;;;;;;4.75;3.08;;;48.40;21.20;;;;;;5019808;28;20713;-80
2022/07/19 10:49:04;;;;;;;4.15;2.58;;;48.60;20.30;;;;;;5037097;28;20636;-79
2022/07/19 10:51:33;;;;;;;4.82;2.40;;;49.50;20.90;;;;;;4943311;29;20381;-79
2022/07/19 10:54:06;;;;;;;3.15;2.60;;;49.70;20.90;;;;;;5002769;28;20191;-79
2022/07/19 10:56:54;;;;;;;3.30;2.42;;;49.40;20.30;;;;;;5037031;28;20235;-79
2022/07/19 10:59:32;;;;;;;3.75;2.80;;;49.00;20.70;;;;;;5038575;28;20250;-79
2022/07/19 11:02:00;;;;;;;6.15;3.05;;;47.50;21.40;;;;;;5039199;28;20278;-79
2022/07/19 11:04:30;;;;;;;3.17;2.45;;;46.00;20.80;;;;;;5039974;28;20597;-79
2022/07/19 11:07:14;;;;;;;6.53;2.40;;;44.60;22.50;;;;;;5038181;28;20187;-79
2022/07/19 11:09:52;;;;;;;5.20;2.97;;;43.60;22.20;;;;;;5040609;28;20279;-79
2022/07/19 11:12:33;;;;;;;3.60;2.80;;;42.90;22.10;;;;;;5040234;28;20571;-79
2022/07/19 11:15:01;;;;;;;5.00;2.93;;;42.20;22.60;;;;;;5041080;28;20543;-79
2022/07/19 11:17:27;;;;;;;4.20;2.77;;;41.70;22.90;;;;;;5038054;28;20290;-80
2022/07/19 11:20:06;;;;;;;5.13;2.70;;;41.30;23.20;;;;;;5039157;28;20207;-81
2022/07/19 11:22:34;;;;;;;4.93;2.40;;;41.10;23.50;;;;;;5039500;28;20172;-80
2022/07/19 11:25:01;;;;;;;4.93;2.67;;;40.80;24.00;;;;;;5039988;28;20594;-79
2022/07/19 11:27:29;;;;;;;5.10;2.70;;;40.50;24.40;;;;;;5022963;28;20603;-80
2022/07/19 11:29:55;;;;;;;5.97;2.97;;;40.40;24.00;;;;;;5039691;28;20176;-81
2022/07/19 11:32:21;;;;;;;5.50;3.03;;;40.20;25.00;;;;;;5039711;28;20426;-80
2022/07/19 11:34:59;;;;;;;4.93;3.10;;;39.90;25.00;;;;;;5039458;28;20426;-79
2022/07/19 11:37:27;;;;;;;4.63;3.07;;;39.70;24.20;;;;;;5036904;28;20285;-78
2022/07/19 11:39:53;;;;;;;3.10;2.70;;;39.40;25.10;;;;;;5040234;28;20526;-79
2022/07/19 11:42:43;;;;;;;6.10;2.90;;;39.20;25.60;;;;;;5039598;28;20417;-79
2022/07/19 11:45:11;;;;;;;5.20;3.63;;;38.90;26.00;;;;;;5032914;28;20437;-80
2022/07/19 11:47:41;;;;;;;4.87;3.13;;;38.80;25.60;;;;;;5034300;28;20442;-80
2022/07/19 11:50:10;;;;;;;4.77;3.30;;;38.70;25.90;;;;;;5032980;28;20430;-79
2022/07/19 11:52:59;;;;;;;4.83;2.93;;;38.70;25.80;;;;;;5031812;28;20914;-80
2022/07/19 11:55:35;;;;;;;6.27;2.90;;;38.60;25.80;;;;;;5031831;28;20911;-79
2022/07/19 11:58:07;;;;;;;4.43;4.00;;;38.60;26.40;;;;;;5031839;28;20443;-79
2022/07/19 12:00:33;;;;;;;5.10;3.13;;;38.50;25.60;;;;;;5031479;28;20429;-79
2022/07/19 12:03:06;;;;;;;4.60;2.90;;;38.60;25.80;;;;;;5033432;28;20434;-80
2022/07/19 12:05:37;;;;;;;4.47;3.50;;;38.60;26.80;;;;;;5031715;28;20510;-80
2022/07/19 12:08:08;;;;;;;5.17;2.90;;;38.70;26.60;;;;;;5034979;28;20474;-81
2022/07/19 12:10:40;;;;;;;5.20;3.23;;;38.80;25.20;;;;;;5037948;28;20449;-80
2022/07/19 12:13:11;;;;;;;7.83;2.67;;;38.60;25.60;;;;;;5038382;28;20953;-80
2022/07/19 12:15:56;;;;;;;4.80;3.20;;;38.50;25.70;;;;;;5055020;28;20418;-80
2022/07/19 12:18:44;;;;;;;4.33;3.00;;;38.40;26.50;;;;;;5055358;28;20541;-80
2022/07/19 12:21:24;;;;;;;5.90;2.90;;;38.40;24.90;;;;;;5027664;28;20423;-80
2022/07/19 12:24:18;;;;;;;5.23;3.30;;;38.30;26.00;;;;;;5054606;28;20423;-80
2022/07/19 12:26:57;;;;;;;6.07;3.30;;;38.20;25.10;;;;;;5053926;28;20419;-80
2022/07/19 12:29:40;;;;;;;4.60;3.20;;;38.20;25.40;;;;;;5054068;28;20467;-80
2022/07/19 12:32:08;;;;;;;3.53;2.80;;;38.30;25.70;;;;;;5053858;28;20411;-80
2022/07/19 12:34:57;;;;;;;5.50;3.10;;;38.50;25.90;;;;;;5053479;28;20925;-81
2022/07/19 12:37:24;;;;;;;4.10;3.27;;;38.70;25.70;;;;;;5058252;28;20462;-80
2022/07/19 12:40:01;;;;;;;4.33;3.73;;;38.80;25.00;;;;;;5059944;28;20422;-80
2022/07/19 12:42:36;;;;;;;4.23;2.70;;;38.70;24.60;;;;;;5061231;28;20459;-81
2022/07/19 12:45:02;;;;;;;3.73;2.97;;;38.60;25.00;;;;;;5060130;28;20497;-80
2022/07/19 12:47:28;;;;;;;6.87;3.33;;;38.60;25.40;;;;;;5059327;28;20488;-80
2022/07/19 12:49:54;;;;;;;4.73;3.50;;;38.70;25.50;;;;;;5031163;28;20807;-80
2022/07/19 12:52:20;;;;;;;4.97;2.80;;;39.00;23.80;;;;;;5037437;28;20184;-80
2022/07/19 12:54:46;;;;;;;5.87;2.90;;;39.30;24.00;;;;;;5034071;28;20184;-80
2022/07/19 12:57:11;;;;;;;4.30;3.10;;;39.50;24.00;;;;;;5025955;28;20238;-81
2022/07/19 12:59:40;;;;;;;5.17;3.03;;;39.40;24.10;;;;;;5014704;28;20234;-80